Language selection

My Weather Profile Weather Topics  | 

Douglas Channel: Past 24 Hour Conditions

 

Dixon Entrance Central - 46145

03:00 PM PDT 29 June 2022Buoy position: 54.22N 132.27W
Disclaimer

This table is a summary of hourly weather conditions for the past 24 hours.
Please note that these observations might not always be representative of weather conditions over their associated marine area.

Date / Time
(PDT)
Wind(knots) Wave height(m) Wave period(s) Pressure(kPa) Air tempC) Water tempC)
29 June 2022
15:00 WSW 11 gust 12 1.0 7.5 102.3 12 11
14:00 WSW 12 gust 15 1.1 8.0 102.2 12 11
13:00 WSW 10 gust 12 1.3 8.0 102.2 11 11
12:00 WSW 10 gust 12 1.3 7.3 102.1 11 11
11:00 W 10 gust 11 1.4 8.0 102.1 11 11
10:00 W 11 gust 13 1.5 7.8 102.1 11 11
9:00 W 12 gust 15 1.3 8.3 102.0 11 11
8:00 W 15 gust 17 1.4 8.3 101.9 11 11
7:00 W 12 gust 15 1.2 8.8 101.9 11 11
6:00 W 12 gust 16 1.1 8.8 101.9 11 11
5:00 W 13 gust 16 1.1 9.1 101.8 11 11
4:00 W 12 gust 16 1.0 8.5 101.7 11 11
3:00 WSW 11 gust 14 1.1 8.8 101.7 11 11
2:00 WSW 12 gust 15 1.1 9.1 101.6 11 11
1:00 WSW 10 gust 12 1.3 8.0 101.6 11 11
0:00 WSW 8 gust 10 1.2 8.5 101.6 11 11
28 June 2022
23:00 WSW 8 gust 10 1.5 8.8 101.6 11 11
22:00 WSW 6 gust 7 1.6 8.5 101.6 11 11
21:00 WNW 2 gust 4 1.7 8.3 101.5 11 11
20:00 WNW 2 gust 4 1.7 8.8 101.5 11 11
19:00 SW 3 gust 5 1.5 9.5 101.5 11 11
18:00 WSW 9 gust 11 1.4 9.8 101.4 11 11
17:00 SW 9 gust 11 1.4 9.1 101.4 11 11
16:00 SW 5 gust 6 1.4 9.5 101.4 11 11
15:00 SW 8 gust 9 1.3 9.1 101.4 11 11

Zoom-in to make a selection

Map of Pacific - North Coast marine weather areas Middle Nomad - 46004 South Nomad - 46036 Dixon Entrance Central - 46145 South Moresby - 46147 Nanakwa Shoal - 46181 North Hecate Strait - 46183 North Nomad - 46184 South Hecate Strait - 46185 West Sea Otter - 46204 West Dixon Entrance - 46205 East Dellwood - 46207 West Moresby - 46208 Sartine Island Cape St.James Kindakun Rocks Langara Island Masset Municipal Airport Rose Spit Sandspit Airport Bella Bella Airport Bella Coola Airport Bonilla Island Cathedral Point Cumshewa Island Grey Islet Holland Rock Lucy Islands Lightstation Prince Rupert Airport
Legend:
buoy Buoy
land station Land Station

Pacific - North Coast Area

Another Region

What we are doing

Features

WeatherCAN app: set custom notifications

Learn how to set custom Air Quality Health Index notifications on the WeatherCAN app

Date modified: